Time;durP1;ratioP1;P1;durP2;ratioP2;P2;SDS_P1;SDS_P2;PMS_P1;PMS_P2;Temp;Humidity;BMP_temperature;BMP_pressure;BME280_temperature;BME280_humidity;BME280_pressure;Samples;Min_cycle;Max_cycle;Signal;HPM_P1;HPM_P2
2021/11/08 00:02:14;;;;;;;7.13;1.97;;;7.50;99.90;;;;;;6180708;23;20186;-79
2021/11/08 00:04:39;;;;;;;7.33;2.53;;;7.50;99.90;;;;;;6207887;23;20225;-80
2021/11/08 00:07:05;;;;;;;7.70;2.40;;;7.50;99.90;;;;;;6207176;23;20621;-79
2021/11/08 00:09:31;;;;;;;9.57;2.50;;;7.50;99.90;;;;;;6180037;23;20498;-80
2021/11/08 00:11:57;;;;;;;7.50;2.33;;;7.50;99.90;;;;;;6207128;23;20582;-78
2021/11/08 00:14:23;;;;;;;9.97;2.13;;;7.50;99.90;;;;;;6180417;23;20585;-79
2021/11/08 00:22:01;;;;;;;10.13;2.37;;;7.70;99.90;;;;;;6217379;23;20223;-81
2021/11/08 00:24:28;;;;;;;8.27;2.30;;;7.80;99.90;;;;;;6207539;23;20586;-81
2021/11/08 00:26:54;;;;;;;7.00;1.87;;;7.80;99.90;;;;;;6179812;23;20209;-80
2021/11/08 00:29:20;;;;;;;4.83;1.63;;;7.70;99.90;;;;;;6180563;23;20497;-81
2021/11/08 00:31:45;;;;;;;7.73;2.70;;;7.70;99.90;;;;;;6180397;23;20262;-79
2021/11/08 00:34:11;;;;;;;5.67;2.00;;;7.80;99.90;;;;;;6207150;23;20150;-79
2021/11/08 00:36:37;;;;;;;6.63;1.83;;;7.80;99.90;;;;;;6180262;23;20273;-77
2021/11/08 00:39:04;;;;;;;5.37;1.60;;;7.80;99.90;;;;;;6206903;23;20555;-79
2021/11/08 00:41:30;;;;;;;9.33;2.23;;;7.80;99.90;;;;;;6206840;23;20618;-79
2021/11/08 00:43:56;;;;;;;8.27;1.80;;;7.80;99.90;;;;;;6207427;23;20166;-79
2021/11/08 00:46:22;;;;;;;12.10;2.53;;;7.80;99.90;;;;;;6206565;23;20184;-80
2021/11/08 00:48:47;;;;;;;8.03;1.90;;;7.90;99.90;;;;;;6179932;23;20166;-78
2021/11/08 00:51:15;;;;;;;7.07;2.20;;;7.80;99.90;;;;;;6179378;23;20186;-78
2021/11/08 00:53:41;;;;;;;8.60;2.23;;;7.80;99.90;;;;;;6181579;23;20510;-78
2021/11/08 00:56:11;;;;;;;7.90;1.77;;;7.80;99.90;;;;;;6182222;23;20242;-78
2021/11/08 00:58:38;;;;;;;7.20;1.60;;;7.80;99.90;;;;;;6183128;23;20174;-79
2021/11/08 01:01:07;;;;;;;4.60;1.77;;;7.80;99.90;;;;;;6208827;23;20232;-79
2021/11/08 01:03:37;;;;;;;5.50;1.83;;;7.70;99.90;;;;;;6209078;23;20198;-79
2021/11/08 01:06:03;;;;;;;9.37;2.10;;;7.70;99.90;;;;;;6182017;23;20301;-79
2021/11/08 01:08:30;;;;;;;6.87;1.83;;;7.70;99.90;;;;;;6182336;23;20162;-77
2021/11/08 01:10:56;;;;;;;7.17;1.80;;;7.70;99.90;;;;;;6208610;23;20178;-81
2021/11/08 01:13:21;;;;;;;8.30;2.17;;;7.70;99.90;;;;;;6208816;23;20155;-79
2021/11/08 01:15:47;;;;;;;8.17;1.87;;;7.80;99.90;;;;;;6181539;23;20245;-80
2021/11/08 01:18:13;;;;;;;9.50;2.03;;;7.70;99.90;;;;;;6181629;23;20182;-80
2021/11/08 01:20:45;;;;;;;10.43;2.07;;;7.70;99.90;;;;;;6181573;23;20194;-79
2021/11/08 01:23:13;;;;;;;8.80;2.20;;;7.70;99.90;;;;;;6181736;23;20182;-80
2021/11/08 01:25:40;;;;;;;12.80;2.30;;;7.70;99.90;;;;;;6208968;23;20150;-79
2021/11/08 01:28:06;;;;;;;9.47;2.43;;;7.70;99.90;;;;;;6209249;23;20263;-79
2021/11/08 01:30:32;;;;;;;4.93;1.57;;;7.60;99.90;;;;;;6209229;23;20225;-77
2021/11/08 01:33:04;;;;;;;8.17;1.70;;;7.60;99.90;;;;;;6182438;23;20162;-80
2021/11/08 01:35:38;;;;;;;6.50;1.50;;;7.70;99.90;;;;;;6209637;23;20162;-80
2021/11/08 01:40:33;;;;;;;6.30;1.57;;;7.70;99.90;;;;;;6209093;23;20159;-79
2021/11/08 01:43:00;;;;;;;6.30;1.70;;;7.60;99.90;;;;;;6209424;23;20568;-79
2021/11/08 01:45:26;;;;;;;8.33;2.17;;;7.60;99.90;;;;;;6182598;23;20161;-77
2021/11/08 01:47:52;;;;;;;6.83;2.10;;;7.60;99.90;;;;;;6209198;23;20198;-78
2021/11/08 01:50:18;;;;;;;7.63;2.20;;;7.60;99.90;;;;;;6209149;23;20302;-79
2021/11/08 01:52:44;;;;;;;6.67;1.63;;;7.50;99.90;;;;;;6209004;23;20161;-82
2021/11/08 01:55:10;;;;;;;8.30;1.87;;;7.50;99.90;;;;;;6209405;23;20182;-77
2021/11/08 01:57:37;;;;;;;6.50;2.10;;;7.50;99.90;;;;;;6181894;23;20821;-78
2021/11/08 02:00:07;;;;;;;10.07;2.63;;;7.50;99.90;;;;;;6209086;23;20237;-79
2021/11/08 02:02:34;;;;;;;8.40;2.03;;;7.60;99.90;;;;;;6181903;23;20182;-76
2021/11/08 02:05:00;;;;;;;6.23;2.07;;;7.60;99.90;;;;;;6182187;23;20162;-78
2021/11/08 02:07:26;;;;;;;8.03;2.33;;;7.50;99.90;;;;;;6209405;23;20237;-78
2021/11/08 02:09:52;;;;;;;6.83;2.43;;;7.50;99.90;;;;;;6208678;23;20200;-78
2021/11/08 02:12:17;;;;;;;7.90;2.57;;;7.50;99.90;;;;;;6182630;23;20237;-78
2021/11/08 02:14:43;;;;;;;11.37;2.90;;;7.60;99.90;;;;;;6182258;23;20495;-77
2021/11/08 02:17:09;;;;;;;5.83;2.20;;;7.60;99.90;;;;;;6182246;23;20190;-77
2021/11/08 02:19:35;;;;;;;9.07;2.57;;;7.70;99.90;;;;;;6182433;23;20175;-77
2021/11/08 02:22:04;;;;;;;8.83;2.10;;;7.60;99.90;;;;;;6209161;23;20239;-77
2021/11/08 02:24:30;;;;;;;5.40;1.43;;;7.70;99.90;;;;;;6209021;23;20230;-79
2021/11/08 02:26:56;;;;;;;8.27;1.93;;;7.60;99.90;;;;;;6181791;23;20196;-79
2021/11/08 02:29:22;;;;;;;15.90;2.90;;;7.60;99.90;;;;;;6181779;23;20167;-78
2021/11/08 02:31:50;;;;;;;4.33;2.00;;;7.60;99.90;;;;;;6182038;23;20190;-77
2021/11/08 02:34:17;;;;;;;9.80;2.43;;;7.70;99.90;;;;;;6182839;23;20598;-78
2021/11/08 02:36:43;;;;;;;5.73;2.20;;;7.60;99.90;;;;;;6182233;23;20807;-76
2021/11/08 02:39:13;;;;;;;6.83;2.50;;;7.60;99.90;;;;;;6181792;23;20166;-77
2021/11/08 02:41:39;;;;;;;9.30;2.50;;;7.60;99.90;;;;;;6208958;23;20174;-79
2021/11/08 02:44:05;;;;;;;9.13;2.33;;;7.50;99.90;;;;;;6208577;23;20204;-78
2021/11/08 02:46:37;;;;;;;7.50;2.10;;;7.50;99.90;;;;;;6208372;23;20196;-79
2021/11/08 02:49:05;;;;;;;6.97;2.00;;;7.50;99.90;;;;;;6181878;23;20229;-79
2021/11/08 02:51:31;;;;;;;7.87;2.37;;;7.40;99.90;;;;;;6208361;23;20165;-79
2021/11/08 02:54:02;;;;;;;12.07;2.43;;;7.40;99.90;;;;;;6208704;23;20158;-80
2021/11/08 02:56:29;;;;;;;5.43;2.40;;;7.40;99.90;;;;;;6209219;23;20181;-79
2021/11/08 02:58:55;;;;;;;8.10;2.70;;;7.30;99.90;;;;;;6208335;23;20500;-78
2021/11/08 03:01:23;;;;;;;9.47;2.60;;;7.20;99.90;;;;;;6181536;23;20186;-80
2021/11/08 03:03:56;;;;;;;7.33;2.63;;;7.20;99.90;;;;;;6208666;23;20150;-77
2021/11/08 03:06:32;;;;;;;10.13;3.13;;;7.00;99.90;;;;;;6181410;23;20178;-79
2021/11/08 03:09:29;;;;;;;7.77;3.00;;;7.00;99.90;;;;;;6208116;23;20135;-79
2021/11/08 03:11:55;;;;;;;12.57;2.80;;;7.00;99.90;;;;;;6181705;23;20155;-79
2021/11/08 03:14:24;;;;;;;8.40;2.80;;;7.00;99.90;;;;;;6181141;23;20304;-81
2021/11/08 03:16:55;;;;;;;13.47;2.93;;;7.10;99.90;;;;;;6180850;23;20182;-77
2021/11/08 03:19:32;;;;;;;7.73;2.23;;;7.20;99.90;;;;;;6181185;23;20157;-81
2021/11/08 03:22:00;;;;;;;4.77;2.07;;;7.20;99.90;;;;;;6207952;23;20176;-78
2021/11/08 03:24:39;;;;;;;7.17;2.10;;;7.30;99.90;;;;;;6181701;23;20751;-79
2021/11/08 03:27:25;;;;;;;7.23;1.63;;;7.40;99.90;;;;;;6181449;23;20190;-79
2021/11/08 03:29:51;;;;;;;7.03;2.33;;;7.40;99.90;;;;;;6180719;23;20177;-79
2021/11/08 03:32:18;;;;;;;11.10;2.30;;;7.40;99.90;;;;;;6181145;23;20166;-82
2021/11/08 03:34:57;;;;;;;9.33;1.80;;;7.40;99.90;;;;;;6208215;23;20188;-79
2021/11/08 03:37:24;;;;;;;8.10;2.30;;;7.40;99.90;;;;;;6207381;23;20184;-79
2021/11/08 03:39:51;;;;;;;5.30;1.93;;;7.30;99.90;;;;;;6207852;23;20162;-79
2021/11/08 03:42:18;;;;;;;6.03;1.77;;;7.30;99.90;;;;;;6181254;23;20190;-82
2021/11/08 03:44:44;;;;;;;6.60;2.17;;;7.30;99.90;;;;;;6181209;23;20234;-79
2021/11/08 03:47:11;;;;;;;7.13;1.70;;;7.40;99.90;;;;;;6207510;23;20676;-80
2021/11/08 03:49:37;;;;;;;8.80;1.80;;;7.40;99.90;;;;;;6180998;23;20621;-77
2021/11/08 03:52:03;;;;;;;6.47;1.80;;;7.40;99.90;;;;;;6180875;23;20503;-79
2021/11/08 03:54:29;;;;;;;7.80;1.53;;;7.40;99.90;;;;;;6181104;23;20172;-77
2021/11/08 03:56:55;;;;;;;4.73;1.77;;;7.40;99.90;;;;;;6180452;23;20700;-81
2021/11/08 03:59:21;;;;;;;6.67;1.70;;;7.40;99.90;;;;;;6207332;23;20555;-78
2021/11/08 04:01:47;;;;;;;7.47;1.73;;;7.50;99.90;;;;;;6207301;23;20178;-79
2021/11/08 04:04:13;;;;;;;10.00;2.03;;;7.50;99.90;;;;;;6181198;23;20158;-79
2021/11/08 04:06:41;;;;;;;7.30;2.60;;;7.60;99.90;;;;;;6207199;23;20176;-79
2021/11/08 04:09:09;;;;;;;9.07;2.03;;;7.60;99.90;;;;;;6207913;23;20155;-76
2021/11/08 04:11:36;;;;;;;11.17;2.40;;;7.60;99.90;;;;;;6180781;23;20158;-81
2021/11/08 04:14:02;;;;;;;5.40;2.20;;;7.50;99.90;;;;;;6207683;23;20162;-78
2021/11/08 04:16:30;;;;;;;7.90;2.27;;;7.50;99.90;;;;;;6181137;23;20205;-77
2021/11/08 04:18:57;;;;;;;7.93;1.83;;;7.50;99.90;;;;;;6208088;23;20154;-78
2021/11/08 04:21:25;;;;;;;9.67;3.17;;;7.40;99.90;;;;;;6207309;23;20154;-78
2021/11/08 04:23:51;;;;;;;7.57;2.10;;;7.40;99.90;;;;;;6181313;23;20240;-78
2021/11/08 04:26:21;;;;;;;8.80;2.30;;;7.30;99.90;;;;;;6180476;23;20678;-81
2021/11/08 04:28:55;;;;;;;8.20;2.47;;;7.40;99.90;;;;;;6183025;23;20174;-78
2021/11/08 04:31:23;;;;;;;6.50;2.00;;;7.40;99.90;;;;;;6183038;23;20842;-81
2021/11/08 04:33:53;;;;;;;7.87;2.20;;;7.40;99.90;;;;;;6209784;23;20157;-77
2021/11/08 04:36:53;;;;;;;9.80;2.23;;;7.40;99.90;;;;;;6209454;23;20209;-81
2021/11/08 04:39:36;;;;;;;5.47;2.53;;;7.40;99.90;;;;;;6183224;23;20150;-78
2021/11/08 04:42:10;;;;;;;9.53;2.10;;;7.30;99.90;;;;;;6182697;23;20178;-79
2021/11/08 04:57:29;;;;;;;4.70;2.30;;;7.40;99.90;;;;;;6208703;23;20189;-81
2021/11/08 05:22:02;;;;;;;8.57;2.10;;;7.40;99.90;;;;;;6165455;23;20189;-79
2021/11/08 05:32:23;;;;;;;6.20;2.10;;;7.30;99.90;;;;;;6208899;23;20146;-81
2021/11/08 05:34:49;;;;;;;10.63;2.07;;;7.30;99.90;;;;;;6181885;23;20165;-81
2021/11/08 05:37:15;;;;;;;7.47;2.37;;;7.30;99.90;;;;;;6208512;23;20166;-77
2021/11/08 05:39:47;;;;;;;7.30;1.87;;;7.30;99.90;;;;;;6207983;23;20237;-79
2021/11/08 05:42:14;;;;;;;15.10;2.90;;;7.40;99.90;;;;;;6208618;23;20170;-79
2021/11/08 05:44:40;;;;;;;11.03;2.20;;;7.30;99.90;;;;;;6208123;23;20204;-80
2021/11/08 05:47:07;;;;;;;9.60;2.70;;;7.20;99.90;;;;;;6208415;23;20632;-80
2021/11/08 05:49:33;;;;;;;11.20;2.40;;;7.20;99.90;;;;;;6208220;23;20158;-81
2021/11/08 05:51:59;;;;;;;9.13;3.10;;;7.20;99.90;;;;;;6181855;23;20177;-81
2021/11/08 05:54:25;;;;;;;7.97;2.47;;;7.30;99.90;;;;;;6181896;23;20162;-77
2021/11/08 06:51:46;;;;;;;9.83;2.63;;;6.80;99.90;;;;;;6218078;23;20157;-79
2021/11/08 06:54:12;;;;;;;9.40;2.77;;;6.90;99.90;;;;;;6181294;23;20170;-79
2021/11/08 06:56:43;;;;;;;8.33;2.80;;;6.90;99.90;;;;;;6180935;23;20179;-80
2021/11/08 06:59:10;;;;;;;7.93;2.40;;;7.00;99.90;;;;;;6181221;23;20991;-80
2021/11/08 07:01:36;;;;;;;10.93;2.60;;;7.10;99.90;;;;;;6174824;23;20186;-81
2021/11/08 07:04:02;;;;;;;9.33;2.30;;;7.20;99.90;;;;;;6180819;23;20154;-80
2021/11/08 07:06:28;;;;;;;7.97;2.13;;;7.20;99.90;;;;;;6179495;23;20175;-79
2021/11/08 07:08:54;;;;;;;8.07;2.60;;;7.20;99.90;;;;;;6180450;23;20161;-79
2021/11/08 07:11:20;;;;;;;7.77;2.57;;;7.10;99.90;;;;;;6207475;23;20242;-79
2021/11/08 07:13:45;;;;;;;6.87;1.90;;;7.00;99.90;;;;;;6180480;23;20776;-79
2021/11/08 07:16:12;;;;;;;8.30;1.67;;;6.80;99.90;;;;;;6180154;23;20165;-79
2021/11/08 07:18:38;;;;;;;5.30;2.10;;;6.70;99.90;;;;;;6180495;23;20249;-79
2021/11/08 07:21:03;;;;;;;8.20;2.30;;;6.70;99.90;;;;;;6206828;23;20178;-79
2021/11/08 07:23:29;;;;;;;6.23;1.87;;;6.60;99.90;;;;;;6180566;23;20209;-79
2021/11/08 07:25:54;;;;;;;6.27;1.90;;;6.60;99.90;;;;;;6179932;23;20162;-81
2021/11/08 07:28:20;;;;;;;6.33;1.60;;;6.60;99.90;;;;;;6206930;23;20222;-79
2021/11/08 07:30:47;;;;;;;7.20;1.60;;;6.80;99.90;;;;;;6180429;23;20162;-79
2021/11/08 07:33:16;;;;;;;7.43;1.67;;;6.70;99.90;;;;;;6207116;23;20698;-79
2021/11/08 07:35:43;;;;;;;5.00;1.40;;;6.90;99.90;;;;;;6179334;23;20158;-79
2021/11/08 07:38:08;;;;;;;3.83;1.30;;;6.90;99.90;;;;;;6180410;23;20516;-79
2021/11/08 07:40:34;;;;;;;5.00;1.43;;;7.00;99.90;;;;;;6206798;23;20158;-78
2021/11/08 07:43:00;;;;;;;4.93;1.30;;;7.00;99.90;;;;;;6177428;23;20190;-79
2021/11/08 07:45:26;;;;;;;6.53;1.03;;;7.10;99.90;;;;;;6177712;23;20169;-80
2021/11/08 07:47:53;;;;;;;4.43;1.20;;;7.20;99.90;;;;;;6176559;23;20182;-79
2021/11/08 07:50:19;;;;;;;4.13;1.10;;;7.40;99.90;;;;;;6180621;23;20212;-82
2021/11/08 07:52:46;;;;;;;6.37;1.67;;;7.40;99.90;;;;;;6179065;23;20170;-79
2021/11/08 07:55:12;;;;;;;3.33;1.53;;;7.60;99.90;;;;;;6177452;23;20173;-79
2021/11/08 07:57:39;;;;;;;6.80;1.40;;;7.60;99.90;;;;;;6204508;23;20202;-80
2021/11/08 08:00:06;;;;;;;3.97;1.20;;;7.70;99.90;;;;;;6210614;23;20154;-78
2021/11/08 08:02:32;;;;;;;5.03;1.43;;;7.80;99.90;;;;;;6212993;23;20185;-80
2021/11/08 08:04:58;;;;;;;7.53;1.50;;;7.70;99.90;;;;;;6186920;23;20162;-79
2021/11/08 08:07:24;;;;;;;6.33;1.80;;;7.80;99.90;;;;;;6210486;23;20202;-79
2021/11/08 08:09:49;;;;;;;5.03;1.60;;;7.70;99.90;;;;;;6209941;23;20490;-80
2021/11/08 08:12:15;;;;;;;3.57;1.60;;;7.70;99.90;;;;;;6210397;23;20154;-78
2021/11/08 08:14:41;;;;;;;5.57;1.77;;;7.70;99.90;;;;;;6210156;23;20233;-79
2021/11/08 08:17:06;;;;;;;6.20;1.83;;;7.60;99.90;;;;;;6209394;23;20228;-79
2021/11/08 08:19:32;;;;;;;6.03;1.50;;;7.70;99.90;;;;;;6209507;23;20162;-78
2021/11/08 08:21:58;;;;;;;5.73;1.70;;;7.80;99.90;;;;;;6208866;23;20503;-78
2021/11/08 08:24:23;;;;;;;6.47;1.53;;;7.80;99.90;;;;;;6207811;23;20183;-78
2021/11/08 08:26:50;;;;;;;4.50;1.50;;;7.90;99.90;;;;;;6180121;23;20185;-78
2021/11/08 08:29:15;;;;;;;6.93;1.83;;;7.90;99.90;;;;;;6206613;23;20245;-78
2021/11/08 08:31:44;;;;;;;6.67;1.80;;;8.00;99.90;;;;;;6205698;23;20181;-78
2021/11/08 08:34:11;;;;;;;6.70;1.80;;;8.00;99.90;;;;;;6206448;23;20158;-78
2021/11/08 08:36:38;;;;;;;5.27;1.20;;;8.00;99.90;;;;;;6206498;23;20178;-78
2021/11/08 08:39:05;;;;;;;8.43;1.60;;;8.10;99.90;;;;;;6205530;23;20154;-77
2021/11/08 08:41:31;;;;;;;9.57;2.20;;;8.20;99.90;;;;;;6181244;23;20162;-76
2021/11/08 08:43:57;;;;;;;6.80;1.70;;;8.30;99.90;;;;;;6208200;23;20633;-77
2021/11/08 08:46:23;;;;;;;8.63;2.07;;;8.40;99.90;;;;;;6178690;23;20221;-79
2021/11/08 08:48:49;;;;;;;5.00;1.50;;;8.50;99.90;;;;;;6200184;23;20216;-80
2021/11/08 08:51:16;;;;;;;6.97;2.27;;;8.40;99.90;;;;;;6173179;23;20232;-81
2021/11/08 08:53:42;;;;;;;8.20;2.17;;;8.40;99.90;;;;;;6201764;23;20690;-79
2021/11/08 08:56:07;;;;;;;5.40;1.90;;;8.40;99.90;;;;;;6177292;23;20193;-80
2021/11/08 08:58:33;;;;;;;6.93;1.70;;;8.40;99.90;;;;;;6203118;23;20182;-85
2021/11/08 09:00:59;;;;;;;7.53;2.17;;;8.50;99.90;;;;;;6177395;23;20229;-80
2021/11/08 09:03:25;;;;;;;4.20;1.70;;;8.50;99.90;;;;;;6206702;23;20182;-83
2021/11/08 09:05:51;;;;;;;9.27;2.37;;;8.60;99.90;;;;;;6177849;23;20237;-80
2021/11/08 09:08:20;;;;;;;5.67;1.80;;;8.80;99.90;;;;;;6176799;23;20642;-80
2021/11/08 09:10:46;;;;;;;4.70;1.60;;;9.00;99.90;;;;;;6178985;23;20509;-81
2021/11/08 09:13:13;;;;;;;6.57;1.97;;;9.30;99.90;;;;;;6165658;23;20211;-82
2021/11/08 09:15:40;;;;;;;5.87;1.70;;;9.40;99.90;;;;;;6152544;23;20503;-81
2021/11/08 09:18:06;;;;;;;6.37;2.13;;;9.40;99.90;;;;;;6157958;23;20412;-81
2021/11/08 09:20:35;;;;;;;9.27;2.10;;;9.40;99.90;;;;;;6154452;23;20166;-80
2021/11/08 09:23:03;;;;;;;8.20;2.03;;;9.30;99.90;;;;;;6156034;23;20199;-81
2021/11/08 09:25:28;;;;;;;6.20;1.70;;;9.40;99.90;;;;;;6156276;23;20185;-81
2021/11/08 09:27:57;;;;;;;7.07;2.00;;;9.40;99.90;;;;;;6149561;23;20211;-81
2021/11/08 09:30:25;;;;;;;5.87;2.03;;;9.40;99.90;;;;;;6152456;23;20152;-82
2021/11/08 09:32:51;;;;;;;7.53;1.60;;;9.50;99.90;;;;;;6153994;23;20211;-81
2021/11/08 09:35:22;;;;;;;4.90;2.10;;;9.50;99.90;;;;;;6154887;23;20508;-81
2021/11/08 09:37:48;;;;;;;7.03;2.30;;;9.50;99.90;;;;;;6155576;23;20171;-79
2021/11/08 09:40:43;;;;;;;7.43;1.57;;;9.50;99.90;;;;;;6155058;23;20167;-79
2021/11/08 09:43:14;;;;;;;8.67;1.93;;;9.50;99.90;;;;;;6147751;23;20278;-80
2021/11/08 09:45:42;;;;;;;6.33;1.90;;;9.50;99.90;;;;;;6151648;23;20205;-80
2021/11/08 09:48:11;;;;;;;6.13;1.80;;;9.50;99.90;;;;;;6151454;23;20179;-81
2021/11/08 09:50:39;;;;;;;3.20;1.60;;;9.50;99.90;;;;;;6151812;23;20175;-80
2021/11/08 09:53:07;;;;;;;6.33;2.40;;;9.50;99.90;;;;;;6153500;23;20183;-79
2021/11/08 09:55:33;;;;;;;4.40;2.13;;;9.40;99.90;;;;;;6158477;23;20182;-79
2021/11/08 09:58:02;;;;;;;6.37;1.83;;;9.40;99.90;;;;;;6158008;23;20587;-82
2021/11/08 10:00:37;;;;;;;4.37;1.87;;;9.40;99.90;;;;;;6159833;23;20243;-80
2021/11/08 10:03:30;;;;;;;11.00;2.00;;;9.40;99.90;;;;;;6161972;23;20620;-80
2021/11/08 10:05:57;;;;;;;6.73;1.90;;;9.50;99.90;;;;;;6135909;23;20207;-81
2021/11/08 10:08:48;;;;;;;7.37;1.93;;;9.70;99.90;;;;;;6159937;23;20164;-80
2021/11/08 10:11:18;;;;;;;5.50;1.93;;;9.90;99.90;;;;;;6160857;23;20226;-81
2021/11/08 10:13:46;;;;;;;5.90;1.97;;;10.00;99.90;;;;;;6135866;23;20230;-79
2021/11/08 10:16:22;;;;;;;5.43;2.17;;;10.00;99.90;;;;;;6163238;23;20166;-80
2021/11/08 10:18:58;;;;;;;5.70;2.00;;;10.10;99.90;;;;;;6164191;23;20159;-79
2021/11/08 10:21:46;;;;;;;6.00;1.80;;;10.30;99.90;;;;;;6161144;23;20194;-81
2021/11/08 10:24:56;;;;;;;7.10;1.97;;;10.40;99.90;;;;;;6162207;23;20190;-82
2021/11/08 10:27:22;;;;;;;7.67;2.00;;;10.50;99.90;;;;;;6145119;23;20160;-81
2021/11/08 10:29:48;;;;;;;7.73;1.83;;;10.40;99.90;;;;;;6147238;23;20209;-81
2021/11/08 10:32:15;;;;;;;5.53;2.13;;;10.30;99.90;;;;;;6149921;23;20159;-81
2021/11/08 10:34:56;;;;;;;7.60;2.20;;;10.20;99.90;;;;;;6152362;23;20183;-79
2021/11/08 10:37:28;;;;;;;5.63;2.00;;;10.30;99.90;;;;;;6153023;23;20144;-81
2021/11/08 10:39:54;;;;;;;5.80;1.80;;;10.60;99.90;;;;;;6154063;23;20144;-83
2021/11/08 10:42:25;;;;;;;5.17;1.63;;;10.80;99.90;;;;;;6148240;23;20199;-81
2021/11/08 10:44:53;;;;;;;6.07;1.70;;;10.80;99.90;;;;;;6146760;23;20187;-80
2021/11/08 10:47:21;;;;;;;7.17;2.03;;;10.70;99.90;;;;;;6149572;23;20144;-81
2021/11/08 10:49:48;;;;;;;5.73;1.90;;;10.80;99.90;;;;;;6146263;23;20819;-80
2021/11/08 10:52:16;;;;;;;5.22;2.13;;;10.80;99.90;;;;;;6148776;23;20152;-81
2021/11/08 10:54:45;;;;;;;7.97;1.97;;;10.80;99.90;;;;;;6149161;23;20178;-80
2021/11/08 10:57:23;;;;;;;8.17;2.00;;;10.60;99.90;;;;;;6146681;23;20151;-81
2021/11/08 10:59:50;;;;;;;6.70;2.60;;;10.60;99.90;;;;;;6146862;23;20156;-79
2021/11/08 11:02:22;;;;;;;15.37;2.57;;;10.60;99.90;;;;;;6145654;23;20175;-81
2021/11/08 11:04:52;;;;;;;5.67;1.97;;;10.50;99.90;;;;;;6146097;23;20184;-81
2021/11/08 11:07:21;;;;;;;4.50;2.17;;;10.60;99.90;;;;;;6147067;23;20223;-80
2021/11/08 11:09:47;;;;;;;3.97;1.53;;;10.70;99.90;;;;;;6145902;23;20151;-78
2021/11/08 11:12:18;;;;;;;6.37;2.10;;;10.80;99.90;;;;;;6147701;23;20171;-77
2021/11/08 11:14:46;;;;;;;9.43;2.10;;;10.90;99.90;;;;;;6150949;23;20203;-78
2021/11/08 11:17:16;;;;;;;8.93;2.47;;;10.90;99.90;;;;;;6149783;23;20491;-78
2021/11/08 11:19:42;;;;;;;7.17;2.23;;;11.00;99.90;;;;;;6148474;23;20151;-80
2021/11/08 11:22:11;;;;;;;5.00;1.60;;;11.00;99.90;;;;;;6147479;23;20278;-79
2021/11/08 11:24:49;;;;;;;4.00;1.47;;;11.00;99.90;;;;;;6147674;23;20180;-81
2021/11/08 11:27:24;;;;;;;5.73;2.20;;;11.00;99.90;;;;;;6149134;23;20190;-80
2021/11/08 11:29:51;;;;;;;6.70;1.87;;;10.90;99.90;;;;;;6149114;23;20155;-82
2021/11/08 11:32:27;;;;;;;6.72;2.25;;;10.80;99.90;;;;;;6143575;23;20163;-80
2021/11/08 11:34:54;;;;;;;8.57;2.20;;;10.70;99.90;;;;;;6144024;23;20253;-85
2021/11/08 11:37:23;;;;;;;5.23;2.10;;;10.70;99.90;;;;;;6141172;23;20966;-86
2021/11/08 11:40:03;;;;;;;4.43;1.80;;;10.50;99.90;;;;;;6146828;23;20160;-84
2021/11/08 11:42:30;;;;;;;8.60;2.17;;;10.50;99.90;;;;;;6146407;23;20175;-84
2021/11/08 11:45:04;;;;;;;5.13;1.93;;;10.50;99.90;;;;;;6147377;23;20179;-82
2021/11/08 11:47:30;;;;;;;7.40;1.90;;;10.50;99.90;;;;;;6148280;23;20158;-83
2021/11/08 11:49:56;;;;;;;4.53;2.10;;;10.60;99.90;;;;;;6144878;23;20244;-82
2021/11/08 11:52:23;;;;;;;4.53;1.70;;;10.70;99.90;;;;;;6144049;23;20206;-81
2021/11/08 11:54:49;;;;;;;5.90;1.90;;;10.70;99.90;;;;;;6146134;23;20501;-82
2021/11/08 11:57:15;;;;;;;6.70;2.23;;;10.70;99.90;;;;;;6148888;23;20186;-80
2021/11/08 11:59:42;;;;;;;5.73;1.90;;;10.70;99.90;;;;;;6146337;23;20163;-81
2021/11/08 12:02:08;;;;;;;10.80;2.57;;;10.60;99.90;;;;;;6146136;23;20188;-79
2021/11/08 12:04:33;;;;;;;6.03;2.27;;;10.70;99.90;;;;;;6145828;23;20183;-82
2021/11/08 12:07:03;;;;;;;5.03;2.03;;;10.70;99.90;;;;;;6146204;23;20159;-82
2021/11/08 12:09:34;;;;;;;6.77;1.97;;;10.70;99.90;;;;;;6144168;23;20218;-81
2021/11/08 12:12:00;;;;;;;3.50;1.50;;;10.70;99.90;;;;;;6147262;23;20474;-80
2021/11/08 12:14:30;;;;;;;6.20;2.00;;;10.60;99.90;;;;;;6144752;23;20656;-82
2021/11/08 12:17:01;;;;;;;6.47;1.90;;;10.60;99.90;;;;;;6146041;23;20152;-82
2021/11/08 12:19:30;;;;;;;4.83;2.23;;;10.70;99.90;;;;;;6147347;23;20476;-81
2021/11/08 12:21:57;;;;;;;6.60;2.07;;;10.80;99.90;;;;;;6147340;23;20179;-80
2021/11/08 12:24:30;;;;;;;8.10;1.87;;;10.70;99.90;;;;;;6143858;23;20203;-80
2021/11/08 12:27:08;;;;;;;7.27;1.57;;;10.70;99.90;;;;;;6143702;23;20179;-80
2021/11/08 12:29:44;;;;;;;7.13;2.47;;;10.70;99.90;;;;;;6144586;23;20148;-80
2021/11/08 12:32:11;;;;;;;10.37;2.03;;;10.70;99.90;;;;;;6145291;23;20513;-82
2021/11/08 12:34:50;;;;;;;9.13;2.37;;;10.60;99.90;;;;;;6146065;23;20186;-80
2021/11/08 12:37:17;;;;;;;7.20;2.30;;;10.60;99.90;;;;;;6146211;23;20148;-82
2021/11/08 12:39:55;;;;;;;3.80;1.70;;;10.60;99.90;;;;;;6145327;23;20164;-81
2021/11/08 12:42:22;;;;;;;6.57;2.30;;;10.60;99.90;;;;;;6147352;23;20194;-81
2021/11/08 12:44:50;;;;;;;7.00;2.20;;;10.60;99.90;;;;;;6145186;23;20179;-80
2021/11/08 12:47:16;;;;;;;7.60;1.90;;;10.60;99.90;;;;;;6147038;23;20147;-81
2021/11/08 12:49:55;;;;;;;4.83;2.33;;;10.60;99.90;;;;;;6146370;23;20254;-81
2021/11/08 12:52:27;;;;;;;6.47;1.80;;;10.60;99.90;;;;;;6149322;23;20160;-82
2021/11/08 12:55:06;;;;;;;4.67;1.90;;;10.70;99.90;;;;;;6146880;23;20183;-81
2021/11/08 12:57:34;;;;;;;4.23;2.10;;;10.70;99.90;;;;;;6147006;23;20156;-83
2021/11/08 13:00:19;;;;;;;10.40;2.80;;;10.60;99.90;;;;;;6147163;23;20682;-81
2021/11/08 13:02:54;;;;;;;6.43;2.17;;;10.60;99.90;;;;;;6148954;23;20228;-82
2021/11/08 13:05:33;;;;;;;5.40;2.03;;;10.70;99.90;;;;;;6146652;23;20146;-82
2021/11/08 13:08:00;;;;;;;6.37;2.43;;;10.80;99.90;;;;;;6147564;23;20659;-85
2021/11/08 13:10:29;;;;;;;6.17;2.20;;;10.70;99.90;;;;;;6146626;23;20187;-82
2021/11/08 13:12:56;;;;;;;7.10;2.40;;;10.80;99.90;;;;;;6147094;23;20655;-80
2021/11/08 13:15:31;;;;;;;8.90;2.22;;;10.70;99.90;;;;;;6147273;23;20156;-81
2021/11/08 13:18:10;;;;;;;5.70;1.90;;;10.80;99.90;;;;;;6147570;23;20151;-82
2021/11/08 13:20:41;;;;;;;9.83;2.47;;;10.90;99.90;;;;;;6148203;23;20151;-81
2021/11/08 13:23:30;;;;;;;7.00;1.97;;;10.90;99.90;;;;;;6146977;23;20191;-81
2021/11/08 13:25:57;;;;;;;5.30;2.33;;;10.90;99.90;;;;;;6145718;23;20176;-79
2021/11/08 13:28:27;;;;;;;3.30;1.70;;;10.90;99.90;;;;;;6146582;23;20148;-80
2021/11/08 13:31:03;;;;;;;6.72;2.90;;;10.80;99.90;;;;;;6144831;23;20640;-79
2021/11/08 13:33:31;;;;;;;8.47;2.37;;;10.70;99.90;;;;;;6144684;23;20816;-79
2021/11/08 13:35:58;;;;;;;7.40;1.90;;;10.60;99.90;;;;;;6144733;23;20164;-78
2021/11/08 13:38:34;;;;;;;7.17;2.30;;;10.40;99.90;;;;;;6144947;23;20518;-78
2021/11/08 13:41:08;;;;;;;5.43;2.17;;;10.30;99.90;;;;;;6147894;23;20190;-79
2021/11/08 13:43:43;;;;;;;4.57;2.10;;;10.30;99.90;;;;;;6148236;23;20635;-80
2021/11/08 13:46:14;;;;;;;5.43;1.90;;;10.30;99.90;;;;;;6148062;23;20155;-78
2021/11/08 13:48:46;;;;;;;8.17;2.33;;;10.40;99.90;;;;;;6146712;23;20666;-81
2021/11/08 13:51:27;;;;;;;7.47;2.30;;;10.40;99.90;;;;;;6146557;23;20163;-81
2021/11/08 13:53:59;;;;;;;5.80;2.30;;;10.40;99.90;;;;;;6146493;23;20171;-79
2021/11/08 13:56:33;;;;;;;5.87;1.97;;;10.30;99.90;;;;;;6146119;23;20152;-79
2021/11/08 13:59:04;;;;;;;8.00;2.53;;;10.40;99.90;;;;;;6149741;23;20144;-80
2021/11/08 14:01:32;;;;;;;5.97;2.00;;;10.50;99.90;;;;;;6148658;23;20140;-81
2021/11/08 14:03:58;;;;;;;6.73;2.67;;;10.50;99.90;;;;;;6147265;23;20187;-79
2021/11/08 14:06:34;;;;;;;7.67;2.90;;;10.50;99.90;;;;;;6147091;23;20156;-82
2021/11/08 14:09:03;;;;;;;7.33;2.63;;;10.50;99.90;;;;;;6145938;23;20151;-80
2021/11/08 14:11:33;;;;;;;4.70;2.20;;;10.60;99.90;;;;;;6148461;23;20144;-81
2021/11/08 14:14:05;;;;;;;6.15;2.80;;;10.60;99.90;;;;;;6147168;23;20202;-82
2021/11/08 14:16:31;;;;;;;5.03;1.83;;;10.50;99.90;;;;;;6147387;23;20144;-81
2021/11/08 14:18:57;;;;;;;5.97;2.30;;;10.50;99.90;;;;;;6147420;23;20603;-81
2021/11/08 14:21:24;;;;;;;3.87;1.97;;;10.50;99.90;;;;;;6147113;23;20152;-81
2021/11/08 14:24:06;;;;;;;4.87;2.20;;;10.40;99.90;;;;;;6149749;23;20187;-84
2021/11/08 14:26:34;;;;;;;4.80;2.10;;;10.30;99.90;;;;;;6148385;23;20617;-81
2021/11/08 14:29:17;;;;;;;6.43;2.10;;;10.20;99.90;;;;;;6147704;23;20202;-81
2021/11/08 14:31:44;;;;;;;5.73;2.63;;;10.20;99.90;;;;;;6147466;23;20144;-81
2021/11/08 14:34:13;;;;;;;4.53;2.40;;;10.20;99.90;;;;;;6148553;23;20678;-81
2021/11/08 14:36:44;;;;;;;4.97;2.20;;;10.20;99.90;;;;;;6149632;23;20183;-81
2021/11/08 14:39:13;;;;;;;7.87;2.20;;;10.20;99.90;;;;;;6149527;23;20137;-81
2021/11/08 14:42:00;;;;;;;7.20;3.20;;;10.20;99.90;;;;;;6147386;23;20156;-83
2021/11/08 14:44:39;;;;;;;8.27;2.65;;;10.20;99.90;;;;;;6149825;23;20175;-83
2021/11/08 14:47:16;;;;;;;7.80;2.67;;;10.20;99.90;;;;;;6147383;23;20156;-83
2021/11/08 14:50:04;;;;;;;8.50;2.67;;;10.20;99.90;;;;;;6148323;23;20151;-79